createdAt,value
2018-11-26T00:00:35.959Z,5.63
2018-11-26T00:01:35.963Z,5.62
2018-11-26T00:02:35.977Z,5.70
2018-11-26T00:03:35.917Z,5.65
2018-11-26T00:04:35.905Z,5.70
2018-11-26T00:05:35.891Z,5.75
2018-11-26T00:06:35.884Z,5.63
2018-11-26T00:07:35.891Z,5.63
2018-11-26T00:08:35.952Z,5.69
2018-11-26T00:09:35.859Z,5.70
2018-11-26T00:10:35.838Z,5.59
2018-11-26T00:11:35.825Z,5.70
2018-11-26T00:12:35.848Z,5.66
2018-11-26T00:13:35.802Z,5.65
2018-11-26T00:14:35.817Z,5.67
2018-11-26T00:15:35.827Z,5.65
2018-11-26T00:16:35.847Z,5.51
2018-11-26T00:17:35.758Z,5.69
2018-11-26T00:18:35.776Z,5.65
2018-11-26T00:19:35.740Z,5.52
2018-11-26T00:20:35.727Z,5.65
2018-11-26T00:21:35.720Z,5.55
2018-11-26T00:22:35.722Z,5.60
2018-11-26T00:23:35.735Z,5.67
2018-11-26T00:24:35.688Z,5.73
2018-11-26T00:25:35.673Z,5.66
2018-11-26T00:26:35.678Z,5.69
2018-11-26T00:27:35.654Z,5.69
2018-11-26T00:28:35.679Z,5.66
2018-11-26T00:29:35.655Z,5.69
2018-11-26T00:30:35.621Z,5.66
2018-11-26T00:31:35.628Z,5.59
2018-11-26T00:32:35.594Z,5.63
2018-11-26T00:33:35.583Z,5.67
2018-11-26T00:34:35.612Z,5.56
2018-11-26T00:35:35.593Z,5.63
2018-11-26T00:36:35.580Z,5.67
2018-11-26T00:37:35.588Z,5.67
2018-11-26T00:38:35.544Z,5.69
2018-11-26T00:39:35.542Z,5.62
2018-11-26T00:40:35.557Z,5.67
2018-11-26T00:41:35.500Z,5.63
2018-11-26T00:42:35.488Z,5.66
2018-11-26T00:43:35.478Z,5.60
2018-11-26T00:44:35.486Z,5.66
2018-11-26T00:45:35.518Z,5.74
2018-11-26T00:46:35.440Z,5.70
2018-11-26T00:47:35.433Z,5.59
2018-11-26T00:48:35.418Z,5.65
2018-11-26T00:49:35.417Z,5.70
2018-11-26T00:50:35.395Z,5.75
2018-11-26T00:51:35.453Z,5.67
2018-11-26T00:52:35.376Z,5.67
2018-11-26T00:53:35.363Z,5.69
2018-11-26T00:54:35.358Z,5.65
2018-11-26T00:55:35.388Z,5.69
2018-11-26T00:56:35.401Z,5.67
2018-11-26T00:57:35.345Z,5.73
2018-11-26T00:58:35.322Z,5.69
2018-11-26T00:59:35.307Z,5.74
2018-11-26T01:00:35.362Z,5.69
2018-11-26T01:01:35.276Z,5.66
2018-11-26T01:02:35.295Z,5.66
2018-11-26T01:03:35.262Z,5.69
2018-11-26T01:04:35.244Z,5.66
2018-11-26T01:05:35.233Z,5.69
2018-11-26T01:06:35.267Z,5.67
2018-11-26T01:07:35.214Z,5.58
2018-11-26T01:08:35.232Z,5.63
2018-11-26T01:09:35.189Z,5.66
2018-11-26T01:10:35.173Z,5.69
2018-11-26T01:11:35.165Z,5.66
2018-11-26T01:12:35.161Z,5.66
2018-11-26T01:13:35.254Z,5.73
2018-11-26T01:14:35.136Z,5.67
2018-11-26T01:15:35.120Z,5.66
2018-11-26T01:16:35.136Z,5.73
2018-11-26T01:17:35.101Z,5.67
2018-11-26T01:18:35.095Z,5.66
2018-11-26T01:19:35.113Z,5.65
2018-11-26T01:20:35.110Z,5.66
2018-11-26T01:21:35.062Z,5.66
2018-11-26T01:22:35.047Z,5.65
2018-11-26T01:23:35.035Z,5.69
2018-11-26T01:24:35.063Z,5.65
2018-11-26T01:25:35.022Z,5.62
2018-11-26T01:26:35.015Z,5.66
2018-11-26T01:27:34.987Z,5.67
2018-11-26T01:28:34.983Z,5.66
2018-11-26T01:29:34.967Z,5.66
2018-11-26T01:30:34.987Z,5.65
2018-11-26T01:31:34.955Z,5.73
2018-11-26T01:32:34.935Z,5.69
2018-11-26T01:33:34.945Z,5.65
2018-11-26T01:34:35.006Z,5.63
2018-11-26T01:35:34.966Z,5.67
2018-11-26T01:36:34.903Z,5.67
2018-11-26T01:37:34.892Z,5.56
2018-11-26T01:38:34.869Z,5.67
2018-11-26T01:39:34.862Z,5.69
2018-11-26T01:40:34.887Z,5.56
2018-11-26T01:41:34.879Z,5.67
2018-11-26T01:42:34.825Z,5.69
2018-11-26T01:43:34.818Z,5.69
2018-11-26T01:44:34.807Z,5.52
2018-11-26T01:45:34.796Z,5.65
2018-11-26T01:46:34.804Z,5.66
2018-11-26T01:47:34.831Z,5.49
2018-11-26T01:48:34.817Z,5.67
2018-11-26T01:49:34.744Z,5.58
2018-11-26T01:50:34.737Z,5.60
2018-11-26T01:51:34.754Z,5.56
2018-11-26T01:52:34.714Z,5.55
2018-11-26T01:53:34.702Z,5.55
2018-11-26T01:54:34.718Z,5.56
2018-11-26T01:55:34.686Z,5.58
2018-11-26T01:56:34.668Z,5.52
2018-11-26T01:57:34.698Z,5.55
2018-11-26T01:58:34.662Z,5.55
2018-11-26T01:59:34.633Z,5.49
2018-11-26T02:00:34.672Z,5.55
2018-11-26T02:01:34.623Z,5.55
2018-11-26T02:02:34.614Z,5.55
2018-11-26T02:03:34.629Z,5.48
2018-11-26T02:04:34.588Z,5.48
2018-11-26T02:05:34.572Z,5.52
2018-11-26T02:06:34.567Z,5.51
2018-11-26T02:07:34.581Z,5.59
2018-11-26T02:08:34.570Z,5.55
2018-11-26T02:09:34.526Z,5.52
2018-11-26T02:10:34.526Z,5.48
2018-11-26T02:11:34.506Z,5.56
2018-11-26T02:12:34.507Z,5.51
2018-11-26T02:13:34.517Z,5.55
2018-11-26T02:14:34.488Z,5.55
2018-11-26T02:15:34.470Z,5.58
2018-11-26T02:16:34.449Z,5.52
2018-11-26T02:17:34.440Z,5.58
2018-11-26T02:18:34.466Z,5.51
2018-11-26T02:19:34.416Z,5.58
2018-11-26T02:20:34.439Z,5.55
2018-11-26T02:21:34.401Z,5.55
2018-11-26T02:22:34.388Z,5.59
2018-11-26T02:23:34.392Z,5.56
2018-11-26T02:24:34.363Z,5.56
2018-11-26T02:25:34.355Z,5.51
2018-11-26T02:26:34.347Z,5.47
2018-11-26T02:27:34.401Z,5.62
2018-11-26T02:28:34.355Z,5.59
2018-11-26T02:29:34.312Z,5.55
2018-11-26T02:30:34.294Z,5.59
2018-11-26T02:31:34.298Z,5.60
2018-11-26T02:32:34.277Z,5.56
2018-11-26T02:33:34.295Z,5.58
2018-11-26T02:34:34.276Z,5.55
2018-11-26T02:35:34.244Z,5.58
2018-11-26T02:36:34.230Z,5.55
2018-11-26T02:37:34.219Z,5.51
2018-11-26T02:38:34.211Z,5.51
2018-11-26T02:39:34.225Z,5.60
2018-11-26T02:40:34.207Z,5.55
2018-11-26T02:41:34.227Z,5.49
2018-11-26T02:42:34.181Z,5.60
2018-11-26T02:43:34.151Z,5.51
2018-11-26T02:44:34.147Z,5.47
2018-11-26T02:45:34.159Z,5.51
2018-11-26T02:46:34.150Z,5.51
2018-11-26T02:47:34.142Z,5.51
2018-11-26T02:48:34.144Z,5.49
2018-11-26T02:49:34.089Z,5.51
2018-11-26T02:50:34.137Z,5.56
2018-11-26T02:51:34.101Z,5.48
2018-11-26T02:52:34.060Z,5.51
2018-11-26T02:53:34.044Z,5.58
2018-11-26T02:54:34.032Z,5.40
2018-11-26T02:55:34.090Z,5.48
2018-11-26T02:56:34.012Z,5.47
2018-11-26T02:57:34.003Z,5.45
2018-11-26T02:58:33.999Z,5.47
2018-11-26T02:59:34.003Z,5.49
2018-11-26T03:00:34.005Z,5.48
2018-11-26T03:01:33.978Z,5.49
2018-11-26T03:02:33.976Z,5.47
2018-11-26T03:03:34.023Z,5.55
2018-11-26T03:04:33.948Z,5.55
2018-11-26T03:05:33.963Z,5.49
2018-11-26T03:06:33.939Z,5.48
2018-11-26T03:07:33.909Z,5.49
2018-11-26T03:08:33.877Z,5.58
2018-11-26T03:09:33.884Z,5.58
2018-11-26T03:10:33.889Z,5.52
2018-11-26T03:11:33.859Z,5.48
2018-11-26T03:12:33.862Z,5.56
2018-11-26T03:13:33.837Z,5.56
2018-11-26T03:14:33.813Z,5.58
2018-11-26T03:15:34.425Z,5.52
2018-11-26T03:16:33.815Z,5.55
2018-11-26T03:17:33.840Z,5.60
2018-11-26T03:18:33.776Z,5.49
2018-11-26T03:19:33.754Z,5.58
2018-11-26T03:20:33.744Z,5.56
2018-11-26T03:21:33.738Z,5.49
2018-11-26T03:22:33.772Z,5.65
2018-11-26T03:23:33.717Z,5.56
2018-11-26T03:24:33.714Z,5.58
2018-11-26T03:25:33.702Z,5.67
2018-11-26T03:26:33.702Z,5.66
2018-11-26T03:27:33.718Z,5.66
2018-11-26T03:28:33.687Z,5.69
2018-11-26T03:29:33.650Z,5.62
2018-11-26T03:30:33.635Z,5.66
2018-11-26T03:31:33.636Z,5.67
2018-11-26T03:32:33.618Z,5.67
2018-11-26T03:33:33.628Z,5.55
2018-11-26T03:34:33.589Z,5.56
2018-11-26T03:35:33.583Z,5.55
2018-11-26T03:36:33.617Z,5.56
2018-11-26T03:37:33.576Z,5.69
2018-11-26T03:38:33.590Z,5.62
2018-11-26T03:39:33.539Z,5.59
2018-11-26T03:40:33.530Z,5.63
2018-11-26T03:41:33.516Z,5.58
2018-11-26T03:42:33.499Z,5.63
2018-11-26T03:43:33.508Z,5.67
2018-11-26T03:44:33.508Z,5.67
2018-11-26T03:45:33.468Z,5.52
2018-11-26T03:46:33.466Z,5.67
2018-11-26T03:47:33.455Z,5.62
2018-11-26T03:48:33.443Z,5.67
2018-11-26T03:49:33.469Z,5.66
2018-11-26T03:50:33.418Z,5.66
2018-11-26T03:51:33.403Z,5.56
2018-11-26T03:52:33.394Z,5.62
2018-11-26T03:53:33.383Z,5.55
2018-11-26T03:54:33.412Z,5.65
2018-11-26T03:55:33.367Z,5.52
2018-11-26T03:56:33.357Z,5.58
2018-11-26T03:57:33.388Z,5.56
2018-11-26T03:58:33.335Z,5.56
2018-11-26T03:59:33.316Z,5.63
2018-11-26T04:00:33.327Z,5.59
2018-11-26T04:01:33.296Z,5.49
2018-11-26T04:02:33.294Z,5.58
2018-11-26T04:03:33.277Z,5.59
2018-11-26T04:04:33.265Z,5.60
2018-11-26T04:05:33.276Z,5.48
2018-11-26T04:06:33.243Z,5.56
2018-11-26T04:07:33.226Z,5.59
2018-11-26T04:08:33.261Z,5.45
2018-11-26T04:09:33.258Z,5.51
2018-11-26T04:10:33.199Z,5.59
2018-11-26T04:11:33.213Z,5.49
2018-11-26T04:12:33.178Z,5.55
2018-11-26T04:13:33.168Z,5.44
2018-11-26T04:14:33.159Z,5.41
2018-11-26T04:15:33.731Z,5.52
2018-11-26T04:16:33.152Z,5.47
2018-11-26T04:17:33.124Z,5.44
2018-11-26T04:18:33.112Z,5.45
2018-11-26T04:19:33.108Z,5.47
2018-11-26T04:20:33.108Z,5.41
2018-11-26T04:21:33.117Z,5.47
2018-11-26T04:22:33.093Z,5.48
2018-11-26T04:23:33.057Z,5.51
2018-11-26T04:24:33.061Z,5.42
2018-11-26T04:25:33.056Z,5.55
2018-11-26T04:26:33.026Z,5.48
2018-11-26T04:27:33.036Z,5.49
2018-11-26T04:28:33.039Z,5.52
2018-11-26T04:29:32.986Z,5.49
2018-11-26T04:30:32.973Z,5.47
2018-11-26T04:31:32.963Z,5.58
2018-11-26T04:32:32.990Z,5.49
2018-11-26T04:33:32.944Z,5.48
2018-11-26T04:34:32.946Z,5.47
2018-11-26T04:35:33.013Z,5.52
2018-11-26T04:36:32.920Z,5.45
2018-11-26T04:37:32.908Z,5.56
2018-11-26T04:38:32.919Z,5.49
2018-11-26T04:39:32.882Z,5.56
2018-11-26T04:40:32.910Z,5.49
2018-11-26T04:41:32.856Z,5.56
2018-11-26T04:42:32.848Z,5.51
2018-11-26T04:43:32.876Z,5.51
2018-11-26T04:44:32.840Z,5.48
2018-11-26T04:45:32.849Z,5.42
2018-11-26T04:46:32.821Z,5.51
2018-11-26T04:47:32.811Z,5.49
2018-11-26T04:48:32.851Z,5.45
2018-11-26T04:49:32.802Z,5.66
2018-11-26T04:50:32.775Z,5.60
2018-11-26T04:51:32.748Z,5.52
2018-11-26T04:52:32.790Z,5.65
2018-11-26T04:53:32.725Z,5.56
2018-11-26T04:54:32.759Z,5.60
2018-11-26T04:55:32.707Z,5.58
2018-11-26T04:56:32.711Z,5.59
2018-11-26T04:57:32.761Z,5.58
2018-11-26T04:58:32.688Z,5.49
2018-11-26T04:59:32.705Z,5.55
2018-11-26T05:00:32.669Z,5.66
2018-11-26T05:01:32.640Z,5.65
2018-11-26T05:02:32.630Z,5.67
2018-11-26T05:03:32.613Z,5.52
2018-11-26T05:04:32.599Z,5.55
2018-11-26T05:05:32.659Z,5.60
2018-11-26T05:06:32.596Z,5.60
2018-11-26T05:07:32.592Z,5.52
2018-11-26T05:08:32.568Z,5.58
2018-11-26T05:09:32.558Z,5.56
2018-11-26T05:10:32.694Z,5.55
2018-11-26T05:11:32.549Z,5.55
2018-11-26T05:12:32.573Z,5.56
2018-11-26T05:13:32.512Z,5.56
2018-11-26T05:14:32.496Z,5.55
2018-11-26T05:15:32.501Z,5.58
2018-11-26T05:16:32.540Z,5.59
2018-11-26T05:17:32.513Z,5.55
2018-11-26T05:18:32.465Z,5.62
2018-11-26T05:19:32.436Z,5.52
2018-11-26T05:20:32.429Z,5.49
2018-11-26T05:21:32.418Z,5.63
2018-11-26T05:22:32.431Z,5.47
2018-11-26T05:23:32.403Z,5.59
2018-11-26T05:24:32.384Z,5.48
2018-11-26T05:25:32.369Z,5.59
2018-11-26T05:26:32.366Z,5.48
2018-11-26T05:27:32.380Z,5.51
2018-11-26T05:28:32.347Z,5.51
2018-11-26T05:29:32.348Z,5.48
2018-11-26T05:30:32.333Z,5.58
2018-11-26T05:31:32.343Z,5.47
2018-11-26T05:32:32.323Z,5.45
2018-11-26T05:33:32.306Z,5.58
2018-11-26T05:34:32.302Z,5.55
2018-11-26T05:35:32.266Z,5.47
2018-11-26T05:36:32.399Z,5.48
2018-11-26T05:37:32.245Z,5.47
2018-11-26T05:38:32.274Z,5.44
2018-11-26T05:39:32.294Z,5.45
2018-11-26T05:40:32.234Z,5.47
2018-11-26T05:41:32.206Z,5.40
2018-11-26T05:42:32.236Z,5.45
2018-11-26T05:43:32.188Z,5.41
2018-11-26T05:44:32.207Z,5.40
2018-11-26T05:45:32.175Z,5.41
2018-11-26T05:46:32.180Z,5.41
2018-11-26T05:47:32.154Z,5.41
2018-11-26T05:48:32.142Z,5.32
2018-11-26T05:49:32.143Z,5.41
2018-11-26T05:50:32.102Z,5.41
2018-11-26T05:51:32.113Z,5.35
2018-11-26T05:52:32.089Z,5.41
2018-11-26T05:53:32.099Z,5.35
2018-11-26T05:54:32.092Z,5.33
2018-11-26T05:55:32.049Z,5.29
2018-11-26T05:56:32.040Z,5.41
2018-11-26T05:57:32.032Z,5.38
2018-11-26T05:58:32.019Z,5.38
2018-11-26T05:59:32.016Z,5.33
2018-11-26T06:00:32.197Z,5.33
2018-11-26T06:01:31.999Z,5.22
2018-11-26T06:02:31.996Z,5.30
2018-11-26T06:03:31.981Z,5.27
2018-11-26T06:04:32.086Z,5.23
2018-11-26T06:05:31.970Z,5.26
2018-11-26T06:06:31.955Z,5.24
2018-11-26T06:07:31.968Z,5.22
2018-11-26T06:08:31.911Z,5.15
2018-11-26T06:09:31.938Z,5.17
2018-11-26T06:10:31.900Z,5.14
2018-11-26T06:11:31.880Z,5.17
2018-11-26T06:12:31.890Z,5.20
2018-11-26T06:13:31.860Z,5.24
2018-11-26T06:14:31.851Z,5.23
2018-11-26T06:15:31.879Z,5.20
2018-11-26T06:16:31.836Z,5.15
2018-11-26T06:17:31.843Z,5.20
2018-11-26T06:18:31.813Z,5.22
2018-11-26T06:19:31.826Z,5.12
2018-11-26T06:20:31.832Z,5.22
2018-11-26T06:21:31.832Z,5.24
2018-11-26T06:22:31.768Z,5.20
2018-11-26T06:23:31.774Z,5.06
2018-11-26T06:24:31.778Z,5.09
2018-11-26T06:25:31.755Z,5.11
2018-11-26T06:26:31.766Z,5.01
2018-11-26T06:27:31.754Z,5.02
2018-11-26T06:28:31.700Z,5.06
2018-11-26T06:29:31.700Z,5.09
2018-11-26T06:30:31.687Z,5.06
2018-11-26T06:31:31.702Z,5.01
2018-11-26T06:32:31.754Z,5.05
2018-11-26T06:33:31.649Z,5.09
2018-11-26T06:34:31.644Z,5.09
2018-11-26T06:35:31.628Z,5.02
2018-11-26T06:36:31.655Z,5.04
2018-11-26T06:37:31.616Z,5.05
2018-11-26T06:38:31.638Z,5.01
2018-11-26T06:39:31.590Z,4.99
2018-11-26T06:40:31.582Z,5.01
2018-11-26T06:41:31.639Z,4.97
2018-11-26T06:42:31.588Z,4.90
2018-11-26T06:43:31.548Z,4.99
2018-11-26T06:44:31.571Z,5.01
2018-11-26T06:45:31.520Z,4.97
2018-11-26T06:46:31.515Z,4.94
2018-11-26T06:47:31.545Z,4.91
2018-11-26T06:48:31.516Z,4.96
2018-11-26T06:49:31.522Z,4.97
2018-11-26T06:50:31.471Z,4.93
2018-11-26T06:51:31.454Z,4.99
2018-11-26T06:52:31.453Z,4.96
2018-11-26T06:53:31.462Z,4.99
2018-11-26T06:54:31.429Z,5.01
2018-11-26T06:55:31.501Z,4.97
2018-11-26T06:56:31.407Z,4.99
2018-11-26T06:57:31.398Z,5.01
2018-11-26T06:58:31.470Z,4.99
2018-11-26T06:59:31.374Z,4.97
2018-11-26T07:00:31.371Z,4.97
2018-11-26T07:01:31.376Z,5.04
2018-11-26T07:02:31.351Z,4.97
2018-11-26T07:03:31.370Z,4.99
2018-11-26T07:04:31.318Z,5.01
2018-11-26T07:05:31.305Z,5.02
2018-11-26T07:06:31.376Z,5.04
2018-11-26T07:07:31.297Z,5.01
2018-11-26T07:08:31.325Z,5.04
2018-11-26T07:09:31.268Z,4.99
2018-11-26T07:10:31.303Z,5.04
2018-11-26T07:11:31.241Z,4.97
2018-11-26T07:12:31.280Z,5.08
2018-11-26T07:13:31.227Z,5.08
2018-11-26T07:14:31.239Z,5.05
2018-11-26T07:15:31.208Z,5.06
2018-11-26T07:16:31.198Z,5.09
2018-11-26T07:17:31.274Z,5.08
2018-11-26T07:18:31.165Z,5.05
2018-11-26T07:19:31.180Z,5.09
2018-11-26T07:20:31.204Z,5.08
2018-11-26T07:21:31.140Z,5.09
2018-11-26T07:22:31.128Z,5.17
2018-11-26T07:23:31.115Z,5.14
2018-11-26T07:24:31.156Z,5.11
2018-11-26T07:25:31.107Z,5.15
2018-11-26T07:26:31.085Z,5.14
2018-11-26T07:27:31.077Z,5.09
2018-11-26T07:28:31.084Z,5.09
2018-11-26T07:29:31.051Z,5.05
2018-11-26T07:30:31.070Z,5.14
2018-11-26T07:31:31.032Z,5.23
2018-11-26T07:32:31.013Z,5.08
2018-11-26T07:33:31.010Z,5.19
2018-11-26T07:34:31.035Z,5.14
2018-11-26T07:35:31.045Z,5.14
2018-11-26T07:36:30.973Z,5.17
2018-11-26T07:37:30.968Z,5.14
2018-11-26T07:38:30.961Z,5.20
2018-11-26T07:39:30.951Z,5.22
2018-11-26T07:40:30.962Z,5.23
2018-11-26T07:41:30.920Z,5.26
2018-11-26T07:42:31.019Z,5.17
2018-11-26T07:43:30.893Z,5.24
2018-11-26T07:44:30.886Z,5.22
2018-11-26T07:45:30.871Z,5.19
2018-11-26T07:46:30.893Z,5.17
2018-11-26T07:47:30.858Z,5.29
2018-11-26T07:48:30.853Z,5.24
2018-11-26T07:49:30.863Z,5.27
2018-11-26T07:50:30.825Z,5.22
2018-11-26T07:51:30.833Z,5.23
2018-11-26T07:52:30.801Z,5.20
2018-11-26T07:53:30.791Z,5.27
2018-11-26T07:54:30.782Z,5.33
2018-11-26T07:55:30.779Z,5.29
2018-11-26T07:56:30.804Z,5.35
2018-11-26T07:57:30.783Z,5.29
2018-11-26T07:58:30.738Z,5.38
2018-11-26T07:59:30.717Z,5.33
2018-11-26T08:00:30.709Z,5.35
2018-11-26T08:01:30.709Z,5.40
2018-11-26T08:02:30.709Z,5.41
2018-11-26T08:03:30.731Z,5.44
2018-11-26T08:04:30.666Z,5.42
2018-11-26T08:05:30.651Z,5.47
2018-11-26T08:06:30.649Z,5.42
2018-11-26T08:07:30.660Z,5.42
2018-11-26T08:08:30.633Z,5.48
2018-11-26T08:09:30.677Z,5.48
2018-11-26T08:10:30.599Z,5.58
2018-11-26T08:11:30.586Z,5.58
2018-11-26T08:12:30.591Z,5.56
2018-11-26T08:13:30.593Z,5.65
2018-11-26T08:14:30.556Z,5.56
2018-11-26T08:15:30.558Z,5.66
2018-11-26T08:16:30.559Z,5.65
2018-11-26T08:17:30.522Z,5.65
2018-11-26T08:18:30.542Z,5.67
2018-11-26T08:19:30.550Z,5.60
2018-11-26T08:20:30.488Z,5.62
2018-11-26T08:21:30.482Z,5.60
2018-11-26T08:22:30.497Z,5.74
2018-11-26T08:23:30.511Z,5.74
2018-11-26T08:24:30.445Z,5.75
2018-11-26T08:25:30.482Z,5.83
2018-11-26T08:26:30.429Z,5.80
2018-11-26T08:27:30.421Z,5.78
2018-11-26T08:28:30.440Z,5.83
2018-11-26T08:29:30.390Z,5.83
2018-11-26T08:30:30.386Z,5.92
2018-11-26T08:31:30.376Z,5.90
2018-11-26T08:32:34.076Z,5.96
2018-11-26T08:33:30.379Z,5.99
2018-11-26T08:34:30.389Z,5.98
2018-11-26T08:35:30.396Z,5.96
2018-11-26T08:36:30.324Z,6.08
2018-11-26T08:37:30.400Z,6.03
2018-11-26T08:38:30.312Z,6.08
2018-11-26T08:39:30.305Z,6.03
2018-11-26T08:40:30.287Z,5.98
2018-11-26T08:41:30.260Z,6.02
2018-11-26T08:42:30.266Z,6.03
2018-11-26T08:43:30.237Z,6.03
2018-11-26T08:44:30.357Z,6.05
2018-11-26T08:45:30.217Z,5.99
2018-11-26T08:46:30.205Z,5.96
2018-11-26T08:47:30.251Z,6.13
2018-11-26T08:48:30.192Z,6.03
2018-11-26T08:49:30.175Z,6.03
2018-11-26T08:50:30.193Z,6.06
2018-11-26T08:51:30.157Z,6.08
2018-11-26T08:52:30.183Z,6.02
2018-11-26T08:53:30.134Z,6.13
2018-11-26T08:54:30.159Z,6.08
2018-11-26T08:55:30.161Z,6.10
2018-11-26T08:56:30.102Z,6.11
2018-11-26T08:57:30.101Z,6.11
2018-11-26T08:58:30.119Z,6.14
2018-11-26T08:59:30.070Z,6.08
2018-11-26T09:00:30.079Z,6.25
2018-11-26T09:01:30.052Z,6.25
2018-11-26T09:02:30.037Z,6.24
2018-11-26T09:03:30.030Z,6.24
2018-11-26T09:04:30.038Z,6.28
2018-11-26T09:05:30.040Z,6.13
2018-11-26T09:06:29.997Z,6.19
2018-11-26T09:07:29.986Z,6.25
2018-11-26T09:08:29.975Z,6.20
2018-11-26T09:09:32.950Z,6.32
2018-11-26T09:10:29.986Z,6.28
2018-11-26T09:11:29.964Z,6.38
2018-11-26T09:12:30.416Z,6.28
2018-11-26T09:13:29.925Z,6.32
2018-11-26T09:14:29.913Z,6.33
2018-11-26T09:15:29.931Z,6.36
2018-11-26T09:16:29.894Z,6.39
2018-11-26T09:17:29.882Z,6.35
2018-11-26T09:18:29.866Z,6.35
2018-11-26T09:19:29.866Z,6.33
2018-11-26T09:20:29.842Z,6.33
2018-11-26T09:21:29.855Z,6.35
2018-11-26T09:22:29.820Z,6.38
2018-11-26T09:23:29.848Z,6.38
2018-11-26T09:24:29.823Z,6.30
2018-11-26T09:25:29.808Z,6.30
2018-11-26T09:26:29.803Z,6.32
2018-11-26T09:27:29.771Z,6.33
2018-11-26T09:28:29.759Z,6.36
2018-11-26T09:29:29.759Z,6.30
2018-11-26T09:30:29.816Z,6.32
2018-11-26T09:31:29.761Z,6.28
2018-11-26T09:32:29.712Z,6.27
2018-11-26T09:33:29.700Z,6.32
2018-11-26T09:34:29.688Z,6.36
2018-11-26T09:35:29.690Z,6.36
2018-11-26T09:36:29.695Z,6.33
2018-11-26T09:37:29.711Z,6.42
2018-11-26T09:38:29.642Z,6.43
2018-11-26T09:39:29.635Z,6.45
2018-11-26T09:40:29.629Z,6.39
2018-11-26T09:41:29.610Z,6.39
2018-11-26T09:42:29.626Z,6.43
2018-11-26T09:43:29.621Z,6.53
2018-11-26T09:44:29.584Z,6.39
2018-11-26T09:45:29.567Z,6.54
2018-11-26T09:46:29.566Z,6.50
2018-11-26T09:47:29.581Z,6.42
2018-11-26T09:48:29.540Z,6.42
2018-11-26T09:49:29.582Z,6.50
2018-11-26T09:50:29.538Z,6.50
2018-11-26T09:51:29.501Z,6.53
2018-11-26T09:52:29.496Z,6.61
2018-11-26T09:53:29.521Z,6.60
2018-11-26T09:54:29.486Z,6.61
2018-11-26T09:55:29.494Z,6.63
2018-11-26T09:56:29.449Z,6.60
2018-11-26T09:57:29.438Z,6.55
2018-11-26T09:58:29.461Z,6.69
2018-11-26T09:59:29.424Z,6.72
2018-11-26T10:00:29.416Z,6.72
2018-11-26T10:01:29.408Z,6.79
2018-11-26T10:02:29.394Z,6.78
2018-11-26T10:03:29.399Z,6.69
2018-11-26T10:04:29.364Z,6.71
2018-11-26T10:05:29.351Z,6.65
2018-11-26T10:06:29.341Z,6.76
2018-11-26T10:07:29.371Z,6.75
2018-11-26T10:08:29.849Z,6.76
2018-11-26T10:09:29.307Z,6.68
2018-11-26T10:10:29.313Z,6.68
2018-11-26T10:11:29.313Z,6.78
2018-11-26T10:12:29.295Z,6.78
2018-11-26T10:13:29.268Z,6.73
2018-11-26T10:14:29.346Z,6.82
2018-11-26T10:15:29.244Z,6.75
2018-11-26T10:16:29.249Z,6.61
2018-11-26T10:17:29.224Z,6.69
2018-11-26T10:18:29.212Z,6.72
2018-11-26T10:19:29.320Z,6.68
2018-11-26T10:20:29.200Z,6.69
2018-11-26T10:21:29.184Z,6.63
2018-11-26T10:22:29.173Z,6.61
2018-11-26T10:23:29.157Z,6.76
2018-11-26T10:24:29.167Z,6.58
2018-11-26T10:25:29.167Z,6.64
2018-11-26T10:26:29.136Z,6.65
2018-11-26T10:27:29.115Z,6.58
2018-11-26T10:28:29.123Z,6.63
2018-11-26T10:29:29.108Z,6.60
2018-11-26T10:30:29.177Z,6.64
2018-11-26T10:31:29.071Z,6.57
2018-11-26T10:32:29.062Z,6.63
2018-11-26T10:33:29.051Z,6.63
2018-11-26T10:34:29.040Z,6.68
2018-11-26T10:35:29.050Z,6.69
2018-11-26T10:36:29.052Z,6.69
2018-11-26T10:37:29.014Z,6.72
2018-11-26T10:38:28.999Z,6.69
2018-11-26T10:39:28.984Z,6.68
2018-11-26T10:40:28.996Z,6.68
2018-11-26T10:41:29.006Z,6.73
2018-11-26T10:42:28.986Z,6.72
2018-11-26T10:43:28.943Z,6.79
2018-11-26T10:44:28.939Z,6.73
2018-11-26T10:45:28.945Z,6.76
2018-11-26T10:46:28.910Z,6.73
2018-11-26T10:47:28.899Z,6.71
2018-11-26T10:48:28.917Z,6.68
2018-11-26T10:49:28.885Z,6.73
2018-11-26T10:50:28.902Z,6.69
2018-11-26T10:51:29.181Z,6.78
2018-11-26T10:52:28.856Z,6.79
2018-11-26T10:53:28.837Z,6.65
2018-11-26T10:54:28.861Z,6.79
2018-11-26T10:55:28.815Z,6.65
2018-11-26T10:56:28.841Z,6.82
2018-11-26T10:57:28.794Z,6.76
2018-11-26T10:58:28.783Z,6.78
2018-11-26T10:59:28.772Z,6.76
2018-11-26T11:00:28.831Z,6.79
2018-11-26T11:01:28.785Z,6.72
2018-11-26T11:02:28.755Z,6.73
2018-11-26T11:03:28.731Z,6.78
2018-11-26T11:04:28.733Z,6.73
2018-11-26T11:05:28.713Z,6.75
2018-11-26T11:06:28.799Z,6.72
2018-11-26T11:07:28.721Z,6.73
2018-11-26T11:08:28.676Z,6.78
2018-11-26T11:09:28.671Z,6.73
2018-11-26T11:10:28.665Z,6.71
2018-11-26T11:11:28.647Z,6.79
2018-11-26T11:12:28.691Z,6.75
2018-11-26T11:13:28.653Z,6.72
2018-11-26T11:14:28.618Z,6.79
2018-11-26T11:15:28.603Z,6.68
2018-11-26T11:16:28.588Z,6.78
2018-11-26T11:17:28.580Z,6.76
2018-11-26T11:18:28.597Z,6.71
2018-11-26T11:19:28.586Z,6.71
2018-11-26T11:20:28.554Z,6.69
2018-11-26T11:21:28.538Z,6.78
2018-11-26T11:22:28.540Z,6.75
2018-11-26T11:23:28.512Z,6.79
2018-11-26T11:24:28.547Z,6.75
2018-11-26T11:25:28.531Z,6.72
2018-11-26T11:26:28.480Z,6.65
2018-11-26T11:27:28.469Z,6.79
2018-11-26T11:28:28.459Z,6.76
2018-11-26T11:29:28.449Z,6.75
2018-11-26T11:30:28.463Z,6.76
2018-11-26T11:31:28.444Z,6.78
2018-11-26T11:32:28.452Z,6.82
2018-11-26T11:33:28.410Z,6.76
2018-11-26T11:34:28.398Z,6.75
2018-11-26T11:35:28.412Z,6.78
2018-11-26T11:36:28.380Z,6.75
2018-11-26T11:37:28.376Z,6.79
2018-11-26T11:38:28.389Z,6.78
2018-11-26T11:39:28.343Z,6.78
2018-11-26T11:40:28.358Z,6.75
2018-11-26T11:41:28.319Z,6.79
2018-11-26T11:42:28.312Z,6.79
2018-11-26T11:43:28.307Z,6.75
2018-11-26T11:44:28.309Z,6.79
2018-11-26T11:45:28.312Z,6.79
2018-11-26T11:46:28.268Z,6.76
2018-11-26T11:47:28.253Z,6.86
2018-11-26T11:48:28.248Z,6.81
2018-11-26T11:49:28.232Z,6.76
2018-11-26T11:50:28.277Z,6.81
2018-11-26T11:51:28.238Z,6.86
2018-11-26T11:52:28.199Z,6.89
2018-11-26T11:53:28.190Z,6.87
2018-11-26T11:54:28.193Z,6.87
2018-11-26T11:55:28.169Z,6.86
2018-11-26T11:56:28.160Z,6.86
2018-11-26T11:57:28.210Z,6.83
2018-11-26T11:58:28.136Z,6.86
2018-11-26T11:59:28.124Z,6.81
2018-11-26T12:00:28.117Z,6.81
2018-11-26T12:01:28.104Z,6.89
2018-11-26T12:02:28.094Z,6.82
2018-11-26T12:03:28.170Z,6.87
2018-11-26T12:04:28.071Z,6.87
2018-11-26T12:05:28.065Z,6.89
2018-11-26T12:06:28.050Z,6.86
2018-11-26T12:07:28.040Z,6.90
2018-11-26T12:08:28.063Z,6.90
2018-11-26T12:09:28.039Z,6.87
2018-11-26T12:10:28.007Z,6.89
2018-11-26T12:11:27.999Z,6.90
2018-11-26T12:12:27.994Z,6.91
2018-11-26T12:13:28.042Z,6.83
2018-11-26T12:14:27.964Z,6.86
2018-11-26T12:15:28.003Z,6.87
2018-11-26T12:16:27.944Z,6.87
2018-11-26T12:17:27.932Z,6.82
2018-11-26T12:18:27.923Z,6.86
2018-11-26T12:19:27.949Z,6.94
2018-11-26T12:20:27.902Z,6.87
2018-11-26T12:21:27.929Z,6.82
2018-11-26T12:22:27.876Z,6.87
2018-11-26T12:23:27.868Z,6.81
2018-11-26T12:24:27.858Z,6.83
2018-11-26T12:25:27.880Z,6.90
2018-11-26T12:26:27.841Z,6.87
2018-11-26T12:27:27.846Z,6.90
2018-11-26T12:28:27.815Z,6.89
2018-11-26T12:29:27.807Z,6.83
2018-11-26T12:30:27.821Z,6.91
2018-11-26T12:31:27.782Z,6.86
2018-11-26T12:32:27.768Z,6.87
2018-11-26T12:33:27.822Z,6.90
2018-11-26T12:34:27.754Z,6.91
2018-11-26T12:35:27.774Z,6.82
2018-11-26T12:36:27.727Z,6.87
2018-11-26T12:37:27.724Z,6.93
2018-11-26T12:38:27.711Z,6.93
2018-11-26T12:39:27.728Z,6.83
2018-11-26T12:40:28.120Z,6.83
2018-11-26T12:41:27.708Z,6.94
2018-11-26T12:42:27.663Z,6.81
2018-11-26T12:43:27.651Z,6.83
2018-11-26T12:44:27.641Z,6.91
2018-11-26T12:45:27.659Z,6.89
2018-11-26T12:46:27.623Z,6.86
2018-11-26T12:47:27.650Z,6.87
2018-11-26T12:48:27.607Z,6.93
2018-11-26T12:49:27.606Z,6.87
2018-11-26T12:50:27.581Z,6.93
2018-11-26T12:51:27.604Z,6.89
2018-11-26T12:52:27.560Z,6.91
2018-11-26T12:53:27.613Z,6.97
2018-11-26T12:54:27.535Z,6.99
2018-11-26T12:55:27.540Z,6.96
2018-11-26T12:56:27.549Z,6.99
2018-11-26T12:57:27.510Z,7.00
2018-11-26T12:58:27.495Z,6.99
2018-11-26T12:59:27.498Z,6.93
2018-11-26T13:00:27.505Z,6.97
2018-11-26T13:01:27.544Z,7.08
2018-11-26T13:02:27.458Z,6.97
2018-11-26T13:03:27.617Z,7.08
2018-11-26T13:04:27.429Z,7.08
2018-11-26T13:05:27.425Z,7.08
2018-11-26T13:06:27.414Z,7.11
2018-11-26T13:07:27.507Z,7.15
2018-11-26T13:08:27.387Z,7.21
2018-11-26T13:09:27.373Z,7.32
2018-11-26T13:10:27.361Z,7.34
2018-11-26T13:11:27.397Z,7.30
2018-11-26T13:12:27.370Z,7.32
2018-11-26T13:13:27.345Z,7.34
2018-11-26T13:14:27.321Z,7.39
2018-11-26T13:15:27.355Z,7.27
2018-11-26T13:16:27.302Z,7.34
2018-11-26T13:17:27.292Z,7.36
2018-11-26T13:18:27.313Z,7.32